Hovedside
METAR-TAF:

METAR-TAF

Lufthavner :

Pangborn Memorial Airport

Wenatchee, Washington, USA

breddegrad: 47-23-56N, lengdegrad: 120-12-25W, høyde over havet: 381 m

Gjeldene værobservasjon

Denne rapporten ble laget for 43 minutter siden, klokken 16:55 UTC
Vind 9 kt fra Vest
Temperatur 11°C
Luftfuktighet 43%
Trykk 1021 hPa
Sikt: 16.1 km
Skyfri himmel

METAR: KEAT 091655Z AUTO 28009KT 10SM CLR 11/M01 A3014 RMK AO2 SLP208 T01061011

Tid: 10:38 (17:38 UTC)

Varsel

Denne rapporten ble laget for 18 minutter siden, klokken 17:20 UTC
Varsel gyldig fra 09. klokken 18 UTC til 10. klokken 18 UTC
Vind 5 kt fra Vest
Sikt: 10 km
Spredte skyer i en høyde av 25000 ft
Fra 09. klokken 2000 UTC
Vind 6 kt fra Øst-sørøst
Sikt: 10 km
Spredte skyer i en høyde av 25000 ft
Fra 10. klokken 0200 UTC
Vind 8 kt fra Nordvest
Sikt: 10 km
Spredte skyer i en høyde av 25000 ft

TAF: KEAT 091720Z 0918/1018 27005KT P6SM SCT250 FM092000 11006KT P6SM SCT250 FM100200 31008KT P6SM SCT250

Værobservasjoner og værvarsel for over 4000 flyplasser (METAR- og TAF-rapporter).

Tilgjengelige stasjoner er representert av de røde og gule prikkene på kartet.

Hold musepekeren over prikken for å se navnet på stasjonen.

Klikk så for å se værobservasjoner og -varsler.

For å forandre kartet kan du klikke på den grønne knappen med svart kryss for å zoome inn, på den grønne knappen med strek for å zoome ut, eller på de grønne pilene for å se tilstøtende kart.


METAR-TAF: